Time;durP1;ratioP1;P1;durP2;ratioP2;P2;SDS_P1;SDS_P2;PMS_P1;PMS_P2;Temp;Humidity;BMP_temperature;BMP_pressure;BME280_temperature;BME280_humidity;BME280_pressure;Samples;Min_cycle;Max_cycle;Signal;HPM_P1;HPM_P2
2022/10/17 00:01:03;;;;;;;18.85;13.30;;;23.10;48.60;;;;;;4969218;28;20054;-60
2022/10/17 00:03:30;;;;;;;16.02;12.77;;;23.10;48.60;;;;;;4968077;28;20338;-60
2022/10/17 00:05:57;;;;;;;16.67;12.63;;;23.20;48.70;;;;;;4969658;28;20082;-60
2022/10/17 00:08:24;;;;;;;16.65;13.02;;;23.20;48.70;;;;;;4969567;28;20047;-60
2022/10/17 00:11:03;;;;;;;17.25;12.10;;;23.10;48.60;;;;;;4968350;28;20487;-60
2022/10/17 00:13:31;;;;;;;19.38;13.00;;;23.10;48.60;;;;;;4964320;28;20488;-59
2022/10/17 00:15:59;;;;;;;18.17;13.43;;;23.10;48.60;;;;;;4969420;28;20057;-60
2022/10/17 00:18:26;;;;;;;19.38;14.13;;;23.10;48.60;;;;;;4969342;28;20047;-60
2022/10/17 00:20:53;;;;;;;18.33;13.13;;;23.10;48.60;;;;;;4969269;28;20058;-60
2022/10/17 00:23:20;;;;;;;16.65;13.18;;;23.10;48.60;;;;;;4969045;28;20046;-60
2022/10/17 00:25:57;;;;;;;16.75;12.68;;;23.10;48.60;;;;;;4969100;28;20487;-60
2022/10/17 00:28:24;;;;;;;16.45;12.75;;;23.10;48.60;;;;;;4968820;28;20053;-60
2022/10/17 00:30:59;;;;;;;17.50;13.13;;;23.10;48.70;;;;;;4969311;28;20058;-59
2022/10/17 00:33:27;;;;;;;17.33;12.23;;;23.10;48.70;;;;;;4968954;28;20054;-60
2022/10/17 00:36:13;;;;;;;16.92;13.00;;;23.10;48.70;;;;;;4968863;28;20058;-60
2022/10/17 00:38:42;;;;;;;15.70;11.73;;;23.10;48.70;;;;;;4967804;28;20050;-60
2022/10/17 00:41:11;;;;;;;17.17;12.63;;;23.10;48.70;;;;;;4968945;28;20050;-60
2022/10/17 00:44:04;;;;;;;17.98;12.45;;;23.00;48.70;;;;;;4969298;28;20054;-60
2022/10/17 00:46:36;;;;;;;16.17;12.68;;;23.00;48.70;;;;;;4964488;28;20051;-60
2022/10/17 00:49:07;;;;;;;16.23;12.50;;;23.10;48.80;;;;;;4971644;28;20086;-60
2022/10/17 00:51:43;;;;;;;17.42;13.20;;;23.10;48.80;;;;;;4972749;28;20228;-60
2022/10/17 00:54:13;;;;;;;16.10;12.60;;;23.10;48.80;;;;;;4972446;28;20047;-60
2022/10/17 00:56:41;;;;;;;17.92;12.30;;;23.00;48.70;;;;;;4972682;28;20495;-60
2022/10/17 00:59:11;;;;;;;18.05;13.18;;;23.00;48.70;;;;;;4971994;28;20047;-60
2022/10/17 01:01:41;;;;;;;14.98;11.05;;;23.00;48.70;;;;;;4972609;28;20047;-60
2022/10/17 01:04:08;;;;;;;;;;;23.00;48.80;;;;;;4972541;28;20417;-60
2022/10/17 01:06:35;;;;;;;14.82;12.18;;;23.00;48.80;;;;;;4972449;28;19933;-60
2022/10/17 01:09:03;;;;;;;15.68;11.90;;;23.00;48.80;;;;;;4970640;28;20047;-60
2022/10/17 01:11:55;;;;;;;15.32;11.80;;;23.00;48.80;;;;;;4971912;28;20503;-60
2022/10/17 01:15:00;;;;;;;14.45;11.52;;;23.00;48.80;;;;;;4972115;28;20050;-60
2022/10/17 01:17:54;;;;;;;16.92;12.35;;;23.00;48.80;;;;;;4971026;28;20054;-60
2022/10/17 01:20:49;;;;;;;17.17;12.88;;;23.00;48.70;;;;;;4969363;28;20648;-60
2022/10/17 01:23:52;;;;;;;16.10;11.88;;;23.00;48.70;;;;;;4972427;28;20047;-60
2022/10/17 01:26:49;;;;;;;15.68;11.40;;;23.00;48.60;;;;;;4971152;28;20054;-60
2022/10/17 01:29:42;;;;;;;13.70;11.50;;;23.00;48.60;;;;;;4972140;28;20042;-60
2022/10/17 01:32:35;;;;;;;16.08;11.95;;;23.10;48.70;;;;;;4972029;28;20053;-60
2022/10/17 01:35:13;;;;;;;14.85;11.70;;;23.10;48.60;;;;;;4971535;28;20047;-60
2022/10/17 01:37:54;;;;;;;14.25;10.85;;;23.10;48.70;;;;;;4970861;28;20050;-59
2022/10/17 01:40:28;;;;;;;13.00;10.43;;;23.00;48.60;;;;;;4968757;28;20525;-61
2022/10/17 01:43:18;;;;;;;16.35;12.32;;;23.00;48.60;;;;;;4970616;28;20043;-60
2022/10/17 01:45:59;;;;;;;16.13;11.40;;;23.00;48.60;;;;;;4950527;28;20492;-60
2022/10/17 01:48:33;;;;;;;14.73;11.82;;;23.00;48.70;;;;;;4951586;28;20352;-60
2022/10/17 01:51:08;;;;;;;12.82;10.45;;;23.00;48.70;;;;;;4954893;28;20412;-60
2022/10/17 01:53:40;;;;;;;13.45;10.50;;;23.00;48.70;;;;;;4970539;28;20046;-60
2022/10/17 01:56:11;;;;;;;14.95;10.90;;;23.00;48.70;;;;;;4969948;28;20070;-60
2022/10/17 01:58:49;;;;;;;18.40;11.45;;;23.00;49.30;;;;;;4969798;28;20651;-60
2022/10/17 02:01:18;;;;;;;13.93;11.15;;;23.00;48.80;;;;;;4967018;28;20047;-60
2022/10/17 02:03:47;;;;;;;16.00;11.45;;;23.00;48.80;;;;;;4950581;28;20057;-60
2022/10/17 02:06:14;;;;;;;14.60;11.20;;;23.00;48.80;;;;;;4949740;29;20323;-60
2022/10/17 02:08:44;;;;;;;15.32;11.38;;;23.00;48.80;;;;;;4951234;28;20286;-60
2022/10/17 02:11:25;;;;;;;13.98;10.68;;;23.00;48.80;;;;;;4950994;28;20508;-60
2022/10/17 02:14:20;;;;;;;13.65;9.88;;;23.00;48.80;;;;;;4951252;28;20047;-60
2022/10/17 02:17:14;;;;;;;13.25;10.35;;;22.90;48.80;;;;;;4949292;29;20047;-60
2022/10/17 02:20:16;;;;;;;13.43;10.27;;;23.00;48.80;;;;;;4951034;28;20470;-60
2022/10/17 02:22:57;;;;;;;15.55;10.98;;;22.90;48.70;;;;;;4946068;28;20049;-60
2022/10/17 02:25:37;;;;;;;14.85;10.55;;;23.00;48.80;;;;;;4950610;28;20053;-60
2022/10/17 02:28:16;;;;;;;15.18;11.05;;;23.00;48.80;;;;;;4950372;28;20051;-60
2022/10/17 02:30:52;;;;;;;12.60;9.82;;;23.00;48.80;;;;;;4950964;28;20058;-60
2022/10/17 02:33:53;;;;;;;14.18;10.07;;;23.00;48.80;;;;;;4950607;28;20054;-60
2022/10/17 02:36:33;;;;;;;14.68;10.98;;;22.90;48.80;;;;;;4947267;28;208277;-60
2022/10/17 02:39:03;;;;;;;12.52;10.13;;;22.90;48.80;;;;;;4959728;28;20055;-60
2022/10/17 02:41:31;;;;;;;11.63;9.57;;;23.00;48.90;;;;;;4951135;28;20066;-60
2022/10/17 02:44:00;;;;;;;12.23;9.48;;;22.90;48.80;;;;;;4951176;28;20407;-60
2022/10/17 02:46:30;;;;;;;10.73;9.57;;;23.00;48.80;;;;;;4949567;29;20050;-60
2022/10/17 02:49:04;;;;;;;13.95;10.60;;;22.90;48.70;;;;;;4951256;28;20047;-60
2022/10/17 02:51:46;;;;;;;14.13;10.27;;;22.90;48.70;;;;;;4951384;28;20507;-60
2022/10/17 02:54:23;;;;;;;13.57;10.23;;;22.90;48.70;;;;;;4946207;28;20051;-60
2022/10/17 02:56:54;;;;;;;13.88;10.30;;;22.90;48.70;;;;;;4950097;29;20054;-60
2022/10/17 02:59:24;;;;;;;13.75;10.50;;;22.90;48.60;;;;;;4951369;28;20055;-61
2022/10/17 03:01:51;;;;;;;12.27;9.65;;;23.00;48.70;;;;;;4950942;28;20496;-60
2022/10/17 03:04:19;;;;;;;14.80;10.10;;;22.90;48.70;;;;;;4950405;28;20507;-60
2022/10/17 03:06:48;;;;;;;13.55;9.82;;;22.90;48.70;;;;;;4950842;28;20062;-60
2022/10/17 03:09:15;;;;;;;12.32;9.32;;;22.90;48.70;;;;;;4950717;28;20055;-60
2022/10/17 03:11:42;;;;;;;14.88;10.13;;;22.90;48.70;;;;;;4950643;28;20047;-60
2022/10/17 03:14:09;;;;;;;11.40;9.40;;;22.90;48.70;;;;;;4950945;28;20051;-60
2022/10/17 03:16:36;;;;;;;11.93;9.25;;;23.00;48.70;;;;;;4949087;29;20255;-60
2022/10/17 03:19:04;;;;;;;12.10;9.38;;;22.90;48.70;;;;;;4950281;28;20074;-60
2022/10/17 03:21:31;;;;;;;11.48;9.32;;;22.90;48.70;;;;;;4949420;29;20051;-60
2022/10/17 03:23:58;;;;;;;11.50;9.32;;;22.90;48.70;;;;;;4950278;28;20051;-60
2022/10/17 03:26:25;;;;;;;12.50;8.93;;;22.90;48.70;;;;;;4945595;28;20051;-60
2022/10/17 03:28:52;;;;;;;12.20;9.18;;;22.90;48.80;;;;;;4950737;28;20051;-60
2022/10/17 03:31:20;;;;;;;12.38;9.45;;;22.90;48.80;;;;;;4950568;28;20506;-60
2022/10/17 03:33:47;;;;;;;12.45;9.45;;;22.90;48.80;;;;;;4950802;28;20047;-60
2022/10/17 03:36:17;;;;;;;12.35;9.48;;;22.90;48.80;;;;;;4966908;28;20047;-60
2022/10/17 03:38:45;;;;;;;13.55;9.73;;;22.90;48.80;;;;;;4968882;28;20392;-59
2022/10/17 03:41:12;;;;;;;11.95;9.35;;;22.90;48.80;;;;;;4968231;28;20065;-60
2022/10/17 03:43:39;;;;;;;13.73;9.50;;;22.90;48.80;;;;;;4969487;28;20502;-60
2022/10/17 03:46:06;;;;;;;9.65;8.10;;;22.90;48.80;;;;;;4969374;28;20393;-60
2022/10/17 03:48:34;;;;;;;13.32;9.77;;;22.90;48.80;;;;;;4969071;28;20082;-60
2022/10/17 03:51:04;;;;;;;10.80;8.50;;;22.90;48.80;;;;;;4968074;28;20051;-60
2022/10/17 03:53:31;;;;;;;;;;;22.90;48.70;;;;;;4970077;28;20047;-61
2022/10/17 03:56:22;;;;;;;11.35;8.70;;;22.90;48.70;;;;;;4969375;28;19933;-60
2022/10/17 03:58:50;;;;;;;10.55;8.27;;;22.90;48.70;;;;;;4964619;28;20510;-60
2022/10/17 04:01:18;;;;;;;10.07;8.32;;;22.90;48.80;;;;;;4969801;28;20050;-60
2022/10/17 04:03:50;;;;;;;11.95;8.25;;;22.90;48.80;;;;;;4968267;28;20125;-60
2022/10/17 04:06:18;;;;;;;8.73;7.82;;;22.80;48.80;;;;;;4969060;28;20480;-60
2022/10/17 04:08:45;;;;;;;10.35;8.13;;;22.80;48.70;;;;;;4969419;28;20411;-60
2022/10/17 04:11:16;;;;;;;11.00;8.30;;;22.90;48.80;;;;;;4969643;28;20259;-60
2022/10/17 04:13:43;;;;;;;;;;;22.90;48.80;;;;;;4967861;28;20055;-60
2022/10/17 04:16:13;;;;;;;11.32;8.52;;;22.80;48.80;;;;;;4969563;28;19928;-60
2022/10/17 04:18:41;;;;;;;11.02;8.85;;;22.90;48.80;;;;;;4969219;28;20058;-60
2022/10/17 04:21:10;;;;;;;8.65;7.68;;;22.80;48.80;;;;;;4969358;28;20295;-59
2022/10/17 04:23:37;;;;;;;10.10;8.07;;;22.90;48.80;;;;;;4969813;28;20542;-60
2022/10/17 04:26:05;;;;;;;9.65;7.85;;;22.80;48.70;;;;;;4972960;28;20081;-59
2022/10/17 04:28:33;;;;;;;11.20;8.25;;;22.90;48.70;;;;;;4972495;28;20519;-59
2022/10/17 04:31:03;;;;;;;12.68;7.57;;;22.80;48.60;;;;;;4968226;28;20139;-60
2022/10/17 04:33:32;;;;;;;10.25;8.23;;;22.90;48.60;;;;;;4973228;28;20050;-60
2022/10/17 04:36:06;;;;;;;10.07;7.95;;;22.90;48.60;;;;;;4972725;28;20050;-60
2022/10/17 04:38:33;;;;;;;10.32;7.32;;;22.90;48.50;;;;;;4972475;28;20058;-60
2022/10/17 04:41:02;;;;;;;8.77;7.72;;;22.90;48.40;;;;;;4971409;28;20053;-60
2022/10/17 04:43:30;;;;;;;10.63;7.97;;;22.90;48.30;;;;;;4971442;28;20515;-60
2022/10/17 04:45:58;;;;;;;8.95;7.47;;;22.90;48.20;;;;;;4971734;28;20050;-60
2022/10/17 04:48:25;;;;;;;9.57;7.38;;;22.90;48.10;;;;;;4972245;28;20054;-60
2022/10/17 04:50:59;;;;;;;8.68;7.50;;;22.80;48.00;;;;;;4971765;28;20420;-60
2022/10/17 04:53:27;;;;;;;9.35;7.60;;;22.90;48.10;;;;;;4972653;28;20062;-60
2022/10/17 04:55:54;;;;;;;8.10;7.00;;;22.80;48.10;;;;;;4972039;28;20051;-60
2022/10/17 04:58:21;;;;;;;9.05;7.13;;;22.80;48.10;;;;;;4972432;28;20055;-60
2022/10/17 05:00:48;;;;;;;9.32;7.53;;;22.80;48.00;;;;;;4972639;28;20054;-60
2022/10/17 05:03:16;;;;;;;9.38;7.57;;;22.80;48.10;;;;;;4965415;28;20055;-60
2022/10/17 05:05:43;;;;;;;10.40;7.53;;;22.70;48.00;;;;;;4955149;28;20354;-60
2022/10/17 05:08:11;;;;;;;10.32;7.05;;;22.70;47.90;;;;;;4966942;28;20054;-60
2022/10/17 05:10:39;;;;;;;11.68;8.63;;;22.70;47.90;;;;;;4967315;28;20555;-60
2022/10/17 05:13:07;;;;;;;9.35;7.57;;;22.70;47.80;;;;;;4965377;28;20504;-60
2022/10/17 05:15:35;;;;;;;9.23;7.50;;;22.70;47.80;;;;;;4971642;28;20506;-60
2022/10/17 05:18:02;;;;;;;8.32;6.93;;;22.70;47.70;;;;;;4970255;28;20467;-59
2022/10/17 05:20:30;;;;;;;10.65;7.68;;;22.70;47.70;;;;;;4966667;28;20657;-59
2022/10/17 05:23:00;;;;;;;9.95;7.00;;;22.70;47.70;;;;;;4965436;28;20315;-60
2022/10/17 05:25:27;;;;;;;9.02;6.90;;;22.70;47.70;;;;;;4959231;28;20058;-60
2022/10/17 05:27:54;;;;;;;9.95;7.00;;;22.70;47.90;;;;;;4965462;28;20042;-61
2022/10/17 05:30:21;;;;;;;8.98;7.13;;;22.70;47.90;;;;;;4964993;28;20047;-59
2022/10/17 05:32:52;;;;;;;16.45;6.72;;;22.70;48.00;;;;;;4976587;28;20053;-61
2022/10/17 05:35:20;;;;;;;11.57;7.55;;;22.70;47.90;;;;;;4959182;28;20047;-61
2022/10/17 05:37:48;;;;;;;9.80;6.50;;;22.70;47.80;;;;;;4966775;28;20130;-61
2022/10/17 05:40:15;;;;;;;10.55;7.32;;;22.70;47.90;;;;;;4961722;28;20790;-62
2022/10/17 05:42:48;;;;;;;11.07;7.03;;;22.80;47.90;;;;;;4959015;28;20051;-63
2022/10/17 05:45:15;;;;;;;10.50;7.35;;;22.80;47.80;;;;;;4960437;28;20054;-62
2022/10/17 05:47:43;;;;;;;11.43;7.00;;;22.80;47.70;;;;;;4960647;28;20066;-61
2022/10/17 05:50:10;;;;;;;10.75;7.15;;;22.80;47.60;;;;;;4963379;28;20675;-62
2022/10/17 05:52:37;;;;;;;12.25;7.93;;;22.80;47.40;;;;;;4960581;28;20058;-61
2022/10/17 05:55:05;;;;;;;9.25;6.95;;;22.80;47.30;;;;;;4962415;28;20051;-61
2022/10/17 05:57:33;;;;;;;10.98;7.20;;;22.90;47.30;;;;;;4959127;28;20061;-61
2022/10/17 06:00:00;;;;;;;11.80;7.45;;;22.90;47.40;;;;;;4961904;28;20081;-61
2022/10/17 06:02:27;;;;;;;10.75;7.95;;;22.90;47.60;;;;;;4953078;28;20496;-61
2022/10/17 06:04:55;;;;;;;10.25;7.38;;;22.90;47.70;;;;;;4962477;28;20054;-60
2022/10/17 06:07:22;;;;;;;10.77;7.18;;;22.90;47.80;;;;;;4956563;28;20058;-59
2022/10/17 06:09:49;;;;;;;11.60;7.28;;;22.90;47.90;;;;;;4961978;28;20046;-59
2022/10/17 06:12:16;;;;;;;11.82;8.07;;;22.90;48.00;;;;;;4960610;28;20050;-60
2022/10/17 06:14:43;;;;;;;10.27;7.60;;;23.00;48.10;;;;;;4965922;28;20777;-60
2022/10/17 06:17:10;;;;;;;15.65;8.20;;;23.00;48.00;;;;;;4961430;28;20510;-60
2022/10/17 06:19:43;;;;;;;10.88;7.90;;;23.00;47.80;;;;;;4963270;28;20086;-61
2022/10/17 06:22:11;;;;;;;11.38;7.63;;;23.00;47.70;;;;;;4957222;28;20379;-60
2022/10/17 06:24:38;;;;;;;14.52;7.55;;;23.10;47.60;;;;;;4962181;28;20431;-60
2022/10/17 06:27:05;;;;;;;10.60;7.88;;;23.10;47.50;;;;;;4961030;28;20054;-60
2022/10/17 06:29:38;;;;;;;17.77;7.85;;;23.10;47.60;;;;;;4970158;28;20142;-62
2022/10/17 06:32:06;;;;;;;13.10;7.50;;;23.10;47.70;;;;;;4962591;28;20050;-63
2022/10/17 06:34:38;;;;;;;9.82;7.07;;;23.20;47.90;;;;;;4956433;28;20055;-61
2022/10/17 06:37:05;;;;;;;12.55;7.45;;;23.20;47.90;;;;;;4956042;28;20145;-61
2022/10/17 06:39:34;;;;;;;9.68;7.25;;;23.30;48.10;;;;;;4949750;28;20080;-63
2022/10/17 06:42:02;;;;;;;11.18;7.57;;;23.30;48.20;;;;;;4958792;28;20051;-61
2022/10/17 06:44:30;;;;;;;13.88;7.90;;;23.30;48.20;;;;;;4963099;28;20059;-62
2022/10/17 06:47:01;;;;;;;9.65;6.82;;;23.40;48.20;;;;;;4959725;28;20039;-64
2022/10/17 06:49:28;;;;;;;14.75;7.82;;;23.40;48.00;;;;;;4957621;28;20077;-63
2022/10/17 06:51:55;;;;;;;14.05;8.10;;;23.40;48.00;;;;;;4958374;28;20054;-62
2022/10/17 06:54:23;;;;;;;11.00;7.63;;;23.50;48.00;;;;;;4959783;28;20069;-64
2022/10/17 06:56:50;;;;;;;10.70;7.05;;;23.60;47.90;;;;;;4958636;28;20439;-62
2022/10/17 06:59:17;;;;;;;11.32;7.10;;;23.60;47.90;;;;;;4957510;28;20059;-61
2022/10/17 07:01:44;;;;;;;14.93;7.60;;;23.60;47.90;;;;;;4959041;28;20042;-60
2022/10/17 07:04:13;;;;;;;12.00;7.28;;;23.70;48.00;;;;;;4957694;28;20098;-64
2022/10/17 07:06:40;;;;;;;11.77;7.75;;;23.70;48.00;;;;;;4957190;28;20065;-63
2022/10/17 07:09:08;;;;;;;9.15;6.78;;;23.70;47.90;;;;;;4943322;28;20075;-62
2022/10/17 07:11:35;;;;;;;11.52;6.70;;;23.70;47.90;;;;;;4954661;28;20058;-64
2022/10/17 07:14:02;;;;;;;13.18;6.85;;;23.80;47.80;;;;;;4956957;28;20062;-63
2022/10/17 07:16:30;;;;;;;11.82;6.45;;;23.80;47.80;;;;;;4959020;28;20065;-64
2022/10/17 07:18:57;;;;;;;12.73;7.28;;;23.80;47.80;;;;;;4959034;28;20127;-63
2022/10/17 07:21:24;;;;;;;11.73;7.28;;;23.90;47.80;;;;;;4960984;28;20144;-63
2022/10/17 07:23:52;;;;;;;11.93;7.57;;;23.90;47.80;;;;;;4963780;28;20069;-63
2022/10/17 07:26:19;;;;;;;9.82;6.88;;;23.90;48.50;;;;;;4956127;28;20058;-64
2022/10/17 07:28:50;;;;;;;11.32;7.05;;;23.90;47.90;;;;;;4958920;28;20054;-63
2022/10/17 07:31:19;;;;;;;14.27;7.10;;;24.00;47.90;;;;;;4959890;28;20495;-64
2022/10/17 07:33:46;;;;;;;11.85;6.72;;;24.00;47.80;;;;;;4966044;28;20862;-64
2022/10/17 07:36:18;;;;;;;9.65;6.85;;;24.00;47.80;;;;;;4958207;28;20126;-63
2022/10/17 07:38:45;;;;;;;13.68;7.50;;;24.10;47.80;;;;;;4958175;28;20054;-63
2022/10/17 07:41:13;;;;;;;11.55;6.47;;;24.10;47.70;;;;;;4965095;28;20043;-61
2022/10/17 07:43:47;;;;;;;12.60;6.97;;;24.10;47.70;;;;;;4956376;28;20074;-61
2022/10/17 07:46:14;;;;;;;9.90;6.75;;;24.10;47.60;;;;;;4962235;28;20046;-61
2022/10/17 07:48:41;;;;;;;12.52;7.00;;;24.20;47.70;;;;;;4957586;28;20054;-60
2022/10/17 07:51:09;;;;;;;11.05;6.82;;;24.20;47.70;;;;;;4957745;28;20151;-60
2022/10/17 07:53:38;;;;;;;13.20;6.78;;;24.30;47.70;;;;;;4958364;28;20054;-60
2022/10/17 07:56:08;;;;;;;10.50;6.72;;;24.30;47.60;;;;;;4956053;28;20748;-60
2022/10/17 07:58:36;;;;;;;12.30;7.05;;;24.30;47.40;;;;;;4961285;28;20050;-60
2022/10/17 08:01:07;;;;;;;11.00;6.65;;;24.30;47.40;;;;;;4966444;28;20053;-61
2022/10/17 08:03:44;;;;;;;8.13;6.30;;;24.30;47.40;;;;;;4963748;28;20051;-61
2022/10/17 08:06:12;;;;;;;11.07;6.82;;;24.30;47.30;;;;;;4960883;28;20078;-62
2022/10/17 08:08:39;;;;;;;8.00;5.97;;;24.40;47.30;;;;;;4961198;28;20171;-60
2022/10/17 08:11:09;;;;;;;10.68;6.75;;;24.40;47.30;;;;;;4966750;28;20046;-61
2022/10/17 08:13:37;;;;;;;7.18;5.88;;;24.50;47.20;;;;;;4963834;28;20058;-61
2022/10/17 08:16:06;;;;;;;11.95;6.35;;;24.50;47.20;;;;;;4962330;28;20054;-62
2022/10/17 08:18:34;;;;;;;8.23;6.57;;;24.50;47.00;;;;;;4963578;28;20051;-61
2022/10/17 08:21:07;;;;;;;10.05;6.20;;;24.50;46.90;;;;;;4962199;28;20047;-61
2022/10/17 08:23:35;;;;;;;12.30;6.43;;;24.60;46.80;;;;;;4962760;28;20047;-61
2022/10/17 08:26:05;;;;;;;11.85;6.90;;;24.60;46.70;;;;;;4966845;28;20050;-60
2022/10/17 08:28:34;;;;;;;9.93;6.43;;;24.60;46.70;;;;;;4963999;28;20407;-59
2022/10/17 08:31:08;;;;;;;13.20;6.40;;;24.70;46.70;;;;;;4966323;28;20113;-62
2022/10/17 08:33:35;;;;;;;10.85;5.90;;;24.70;46.60;;;;;;4965846;28;20137;-61
2022/10/17 08:36:03;;;;;;;8.32;6.15;;;24.70;46.60;;;;;;4965377;28;20043;-62
2022/10/17 08:38:32;;;;;;;10.55;6.30;;;24.70;46.50;;;;;;4965069;28;20046;-62
2022/10/17 08:41:29;;;;;;;9.40;6.15;;;24.70;46.50;;;;;;4960389;28;20057;-62
2022/10/17 08:44:20;;;;;;;9.38;6.45;;;24.70;46.50;;;;;;4955409;28;20057;-62
2022/10/17 08:46:50;;;;;;;8.63;5.88;;;24.80;46.40;;;;;;4963071;28;20062;-64
2022/10/17 08:49:37;;;;;;;11.85;6.10;;;24.80;46.40;;;;;;4958381;28;20429;-62
2022/10/17 08:52:15;;;;;;;10.55;5.97;;;24.80;46.40;;;;;;4964669;28;20062;-62
2022/10/17 08:54:45;;;;;;;9.52;6.00;;;24.80;46.30;;;;;;4957279;28;20066;-61
2022/10/17 08:57:14;;;;;;;9.35;6.18;;;24.90;46.40;;;;;;4957050;28;20066;-58
2022/10/17 08:59:44;;;;;;;9.05;6.93;;;24.90;46.50;;;;;;4976577;28;20053;-61
2022/10/17 09:02:46;;;;;;;12.45;6.13;;;24.80;46.50;;;;;;4956057;28;20047;-60
2022/10/17 09:05:50;;;;;;;8.95;6.68;;;24.90;46.60;;;;;;4963300;28;20050;-61
2022/10/17 09:08:44;;;;;;;14.32;6.07;;;24.90;46.70;;;;;;4963542;28;20516;-60
2022/10/17 09:11:44;;;;;;;6.93;5.90;;;25.00;46.80;;;;;;4960183;28;20050;-60
2022/10/17 09:14:47;;;;;;;14.23;5.93;;;25.00;46.80;;;;;;4959785;28;20046;-61
2022/10/17 09:17:48;;;;;;;9.20;6.78;;;25.00;46.70;;;;;;4958615;28;20063;-61
2022/10/17 09:20:21;;;;;;;10.02;6.32;;;25.00;46.60;;;;;;4951366;28;20069;-61
2022/10/17 09:23:23;;;;;;;12.75;7.07;;;25.10;46.50;;;;;;4959514;28;20055;-60
2022/10/17 09:25:57;;;;;;;12.70;6.65;;;25.10;46.50;;;;;;4956320;28;20050;-61
2022/10/17 09:28:32;;;;;;;10.07;6.28;;;25.10;46.50;;;;;;4954132;28;20059;-61
2022/10/17 09:31:21;;;;;;;12.30;5.90;;;25.10;46.40;;;;;;4951411;28;20084;-61
2022/10/17 09:33:51;;;;;;;7.55;5.43;;;25.20;46.40;;;;;;4959289;28;20065;-60
2022/10/17 09:36:31;;;;;;;13.13;7.28;;;25.20;46.30;;;;;;4954750;28;20054;-59
2022/10/17 09:39:10;;;;;;;8.35;5.95;;;25.20;46.30;;;;;;4957773;28;20061;-61
2022/10/17 09:41:53;;;;;;;10.93;7.15;;;25.30;46.30;;;;;;4960958;28;20074;-61
2022/10/17 09:44:24;;;;;;;11.13;6.30;;;25.30;46.20;;;;;;4960669;28;20074;-60
2022/10/17 09:47:17;;;;;;;11.35;6.55;;;25.30;46.20;;;;;;4953153;28;20055;-60
2022/10/17 09:49:46;;;;;;;8.48;5.88;;;25.40;46.20;;;;;;4960375;28;20503;-59
2022/10/17 09:52:17;;;;;;;8.05;5.72;;;25.40;46.20;;;;;;4952528;28;20046;-60
2022/10/17 09:55:06;;;;;;;8.40;5.72;;;25.40;46.10;;;;;;4962629;28;20050;-59
2022/10/17 09:57:55;;;;;;;7.82;5.95;;;25.40;46.00;;;;;;4955811;28;20512;-60
2022/10/17 10:00:28;;;;;;;10.15;5.60;;;25.40;46.00;;;;;;4957089;28;20489;-60
2022/10/17 10:03:19;;;;;;;8.45;5.38;;;25.50;46.00;;;;;;4961707;28;20049;-58
2022/10/17 10:06:20;;;;;;;11.32;5.90;;;25.50;45.90;;;;;;4966711;28;20054;-59
2022/10/17 10:08:52;;;;;;;9.43;5.30;;;25.50;45.80;;;;;;4955348;28;20762;-59
2022/10/17 10:11:44;;;;;;;8.48;5.68;;;25.50;45.70;;;;;;4957642;28;20050;-59
2022/10/17 10:14:19;;;;;;;7.65;5.45;;;25.50;45.50;;;;;;4966087;28;20138;-61
2022/10/17 10:16:47;;;;;;;8.68;5.57;;;25.50;45.40;;;;;;4964857;28;20069;-61
2022/10/17 10:19:30;;;;;;;7.57;6.10;;;25.60;45.30;;;;;;4964037;28;20070;-61
2022/10/17 10:21:59;;;;;;;7.05;5.20;;;25.60;45.60;;;;;;4962776;28;20054;-61
2022/10/17 10:24:28;;;;;;;7.57;5.20;;;25.50;45.00;;;;;;4965314;28;20550;-61
2022/10/17 10:27:00;;;;;;;7.18;5.25;;;25.50;44.90;;;;;;4960864;28;20059;-62
2022/10/17 10:29:35;;;;;;;8.45;4.82;;;25.50;44.80;;;;;;4967101;28;20475;-62
2022/10/17 10:32:26;;;;;;;11.07;4.97;;;25.50;44.70;;;;;;4961253;28;20047;-62
2022/10/17 10:35:17;;;;;;;12.98;6.50;;;25.60;44.70;;;;;;4969853;28;20054;-61
2022/10/17 10:37:49;;;;;;;9.10;4.82;;;25.50;44.60;;;;;;4968191;28;20074;-61
2022/10/17 10:40:21;;;;;;;7.60;5.05;;;25.60;44.60;;;;;;4969946;28;20050;-60
2022/10/17 10:42:51;;;;;;;7.13;5.00;;;25.60;44.60;;;;;;4979890;28;20061;-58
2022/10/17 10:45:40;;;;;;;8.90;5.70;;;25.50;44.50;;;;;;4965331;28;20074;-59
2022/10/17 10:48:24;;;;;;;5.65;5.00;;;25.50;44.60;;;;;;4964813;28;20050;-59
2022/10/17 10:50:58;;;;;;;6.88;5.38;;;25.50;44.60;;;;;;4974155;28;20361;-59
2022/10/17 10:53:49;;;;;;;7.57;5.30;;;25.60;44.70;;;;;;4959437;28;20143;-62
2022/10/17 10:56:42;;;;;;;8.70;5.22;;;25.60;44.40;;;;;;4961417;28;20055;-60
2022/10/17 10:59:19;;;;;;;6.78;5.63;;;25.60;44.40;;;;;;4965497;28;20051;-60
2022/10/17 11:02:02;;;;;;;8.75;5.40;;;25.60;44.40;;;;;;4962570;28;20070;-60
2022/10/17 11:05:04;;;;;;;6.85;5.13;;;25.60;44.40;;;;;;4960559;28;20062;-60
2022/10/17 11:07:58;;;;;;;7.15;5.80;;;25.60;44.50;;;;;;4960990;28;20625;-60
2022/10/17 11:10:44;;;;;;;8.95;4.70;;;25.60;44.40;;;;;;4964355;28;20043;-60
2022/10/17 11:13:20;;;;;;;5.93;4.70;;;25.60;44.90;;;;;;4966316;28;20058;-61
2022/10/17 11:16:27;;;;;;;6.95;5.20;;;25.60;44.30;;;;;;4960987;28;20047;-62
2022/10/17 11:19:13;;;;;;;7.82;5.03;;;25.60;44.40;;;;;;4960597;28;20043;-63
2022/10/17 11:22:04;;;;;;;5.80;4.72;;;25.60;44.40;;;;;;4962362;28;20948;-60
2022/10/17 11:24:58;;;;;;;5.97;4.38;;;25.60;44.40;;;;;;4964394;28;20051;-60
2022/10/17 11:27:28;;;;;;;5.75;4.53;;;25.60;44.50;;;;;;4960708;28;20052;-61
2022/10/17 11:29:56;;;;;;;11.77;5.30;;;25.60;44.50;;;;;;4950798;28;20054;-60
2022/10/17 11:32:37;;;;;;;8.13;4.82;;;25.60;44.40;;;;;;4960014;28;20178;-60
2022/10/17 11:35:35;;;;;;;7.65;4.80;;;25.70;44.40;;;;;;4961467;28;20117;-61
2022/10/17 11:38:20;;;;;;;8.75;4.45;;;25.70;44.40;;;;;;4958789;28;20403;-61
2022/10/17 11:40:50;;;;;;;7.82;4.45;;;25.70;44.10;;;;;;4957633;28;20050;-62
2022/10/17 11:43:39;;;;;;;6.95;4.60;;;25.70;44.20;;;;;;4960237;28;20133;-61
2022/10/17 11:46:22;;;;;;;10.45;4.18;;;25.70;44.20;;;;;;4959762;28;20059;-61
2022/10/17 11:49:10;;;;;;;5.95;4.22;;;25.70;44.20;;;;;;4956826;28;20065;-61
2022/10/17 11:51:51;;;;;;;6.90;5.03;;;25.70;44.20;;;;;;4961824;28;20062;-59
2022/10/17 11:54:40;;;;;;;5.00;4.50;;;25.70;44.20;;;;;;4955288;28;20055;-60
2022/10/17 11:57:39;;;;;;;7.83;4.60;;;25.80;44.20;;;;;;4959798;28;20791;-61
2022/10/17 12:00:24;;;;;;;6.18;4.82;;;25.80;44.10;;;;;;4950312;28;20054;-61
2022/10/17 12:03:30;;;;;;;6.18;4.60;;;25.80;43.80;;;;;;4957722;28;20058;-61
2022/10/17 12:06:12;;;;;;;7.95;5.10;;;25.80;43.90;;;;;;4954782;28;20049;-60
2022/10/17 12:09:06;;;;;;;7.38;4.53;;;25.90;44.00;;;;;;4958554;28;20061;-61
2022/10/17 12:11:49;;;;;;;8.38;4.90;;;25.90;44.00;;;;;;4964251;28;20047;-60
2022/10/17 12:14:38;;;;;;;8.45;4.75;;;25.90;44.00;;;;;;4961056;28;20047;-60
2022/10/17 12:17:29;;;;;;;6.70;4.78;;;25.90;43.80;;;;;;4962923;28;20562;-60
2022/10/17 12:20:26;;;;;;;6.80;4.35;;;25.90;42.50;;;;;;4953538;28;20416;-61
2022/10/17 12:23:20;;;;;;;4.93;4.38;;;25.90;43.30;;;;;;4956853;28;20118;-60
2022/10/17 12:25:58;;;;;;;4.80;4.30;;;25.90;43.50;;;;;;4960717;28;20051;-61
2022/10/17 12:28:43;;;;;;;6.05;4.78;;;25.90;43.60;;;;;;4962047;28;20047;-61
2022/10/17 12:31:27;;;;;;;8.90;4.28;;;25.90;43.50;;;;;;4958559;28;20057;-61
2022/10/17 12:34:01;;;;;;;8.90;4.53;;;26.00;43.60;;;;;;4956391;28;20050;-59
2022/10/17 12:36:37;;;;;;;6.32;4.50;;;26.00;43.60;;;;;;4954492;28;20051;-60
2022/10/17 12:39:44;;;;;;;6.85;4.47;;;26.00;43.50;;;;;;4954902;28;20502;-59
2022/10/17 12:42:32;;;;;;;10.73;4.95;;;26.00;43.40;;;;;;4956879;28;20047;-58
2022/10/17 12:44:59;;;;;;;9.02;4.80;;;26.00;43.30;;;;;;4962377;28;20492;-58
2022/10/17 12:47:35;;;;;;;7.63;4.72;;;26.00;43.30;;;;;;4962321;28;20138;-58
2022/10/17 12:50:03;;;;;;;6.30;4.45;;;26.00;43.30;;;;;;4958457;28;20046;-57
2022/10/17 12:52:54;;;;;;;5.25;4.05;;;26.00;43.40;;;;;;4960243;28;20089;-58
2022/10/17 12:55:24;;;;;;;6.22;5.03;;;26.00;43.00;;;;;;4960874;28;20597;-59
2022/10/17 12:58:11;;;;;;;8.00;4.60;;;26.10;43.20;;;;;;4955302;28;20047;-59
2022/10/17 13:00:50;;;;;;;4.95;4.15;;;26.10;43.80;;;;;;4959440;28;20046;-59
2022/10/17 13:03:47;;;;;;;5.13;4.57;;;26.10;43.10;;;;;;4962597;28;20051;-60
2022/10/17 13:06:20;;;;;;;5.68;3.92;;;26.10;43.10;;;;;;4955512;28;20054;-59
2022/10/17 13:08:54;;;;;;;4.32;3.90;;;26.10;43.20;;;;;;4964148;28;20074;-59
2022/10/17 13:11:32;;;;;;;6.22;4.25;;;26.10;43.10;;;;;;4963149;28;20506;-60
2022/10/17 13:14:08;;;;;;;5.88;4.40;;;26.10;43.10;;;;;;4959857;28;20050;-60
2022/10/17 13:16:57;;;;;;;4.90;3.75;;;26.10;43.10;;;;;;4964356;28;20046;-59
2022/10/17 13:19:29;;;;;;;7.82;4.50;;;26.10;43.10;;;;;;4961345;28;20147;-59